sensor_id;sensor_type;location;lat;lon;timestamp;P1;durP1;ratioP1;P2;durP2;ratioP2
24873;SDS011;12945;42.648;23.370;2023-07-29T00:01:01;4.85;;;3.25;;
24873;SDS011;12945;42.648;23.370;2023-07-29T00:03:27;5.68;;;3.38;;
24873;SDS011;12945;42.648;23.370;2023-07-29T00:05:54;9.25;;;3.58;;
24873;SDS011;12945;42.648;23.370;2023-07-29T00:08:20;6.68;;;3.63;;
24873;SDS011;12945;42.648;23.370;2023-07-29T00:10:45;5.30;;;3.50;;
24873;SDS011;12945;42.648;23.370;2023-07-29T00:13:10;4.63;;;3.03;;
24873;SDS011;12945;42.648;23.370;2023-07-29T00:15:36;4.93;;;3.17;;
24873;SDS011;12945;42.648;23.370;2023-07-29T00:18:01;8.05;;;3.80;;
24873;SDS011;12945;42.648;23.370;2023-07-29T00:20:27;5.40;;;3.20;;
24873;SDS011;12945;42.648;23.370;2023-07-29T00:22:52;6.22;;;3.72;;
24873;SDS011;12945;42.648;23.370;2023-07-29T00:25:20;5.65;;;3.60;;
24873;SDS011;12945;42.648;23.370;2023-07-29T00:27:46;5.97;;;3.25;;
24873;SDS011;12945;42.648;23.370;2023-07-29T00:30:11;4.47;;;3.40;;
24873;SDS011;12945;42.648;23.370;2023-07-29T00:32:37;4.75;;;3.42;;
24873;SDS011;12945;42.648;23.370;2023-07-29T00:35:02;4.43;;;3.42;;
24873;SDS011;12945;42.648;23.370;2023-07-29T00:37:28;8.65;;;3.58;;
24873;SDS011;12945;42.648;23.370;2023-07-29T00:39:53;7.32;;;3.35;;
24873;SDS011;12945;42.648;23.370;2023-07-29T00:42:18;6.28;;;3.10;;
24873;SDS011;12945;42.648;23.370;2023-07-29T00:44:43;4.97;;;3.25;;
24873;SDS011;12945;42.648;23.370;2023-07-29T00:47:09;7.72;;;3.58;;
24873;SDS011;12945;42.648;23.370;2023-07-29T00:49:35;6.57;;;4.10;;
24873;SDS011;12945;42.648;23.370;2023-07-29T00:52:01;9.15;;;3.58;;
24873;SDS011;12945;42.648;23.370;2023-07-29T00:54:26;7.80;;;3.90;;
24873;SDS011;12945;42.648;23.370;2023-07-29T00:56:51;6.93;;;3.80;;
24873;SDS011;12945;42.648;23.370;2023-07-29T00:59:17;7.47;;;4.07;;
24873;SDS011;12945;42.648;23.370;2023-07-29T01:01:42;7.07;;;3.97;;
24873;SDS011;12945;42.648;23.370;2023-07-29T01:04:07;9.68;;;4.45;;
24873;SDS011;12945;42.648;23.370;2023-07-29T01:09:23;11.23;;;4.70;;
24873;SDS011;12945;42.648;23.370;2023-07-29T01:16:44;6.90;;;3.72;;
24873;SDS011;12945;42.648;23.370;2023-07-29T01:19:16;5.82;;;4.15;;
24873;SDS011;12945;42.648;23.370;2023-07-29T01:21:46;6.25;;;3.58;;
24873;SDS011;12945;42.648;23.370;2023-07-29T01:24:11;9.50;;;3.53;;
24873;SDS011;12945;42.648;23.370;2023-07-29T01:26:36;7.68;;;3.90;;
24873;SDS011;12945;42.648;23.370;2023-07-29T01:29:02;5.55;;;3.20;;
24873;SDS011;12945;42.648;23.370;2023-07-29T01:31:31;4.43;;;3.25;;
24873;SDS011;12945;42.648;23.370;2023-07-29T01:36:23;6.30;;;3.30;;
24873;SDS011;12945;42.648;23.370;2023-07-29T01:38:52;4.70;;;3.63;;
24873;SDS011;12945;42.648;23.370;2023-07-29T01:41:19;4.78;;;3.30;;
24873;SDS011;12945;42.648;23.370;2023-07-29T01:43:45;4.18;;;3.28;;
24873;SDS011;12945;42.648;23.370;2023-07-29T01:46:11;10.05;;;3.35;;
24873;SDS011;12945;42.648;23.370;2023-07-29T01:48:37;6.28;;;3.28;;
24873;SDS011;12945;42.648;23.370;2023-07-29T01:51:02;9.15;;;3.80;;
24873;SDS011;12945;42.648;23.370;2023-07-29T01:53:28;5.93;;;3.63;;
24873;SDS011;12945;42.648;23.370;2023-07-29T01:55:53;6.18;;;3.75;;
24873;SDS011;12945;42.648;23.370;2023-07-29T01:58:18;5.03;;;3.75;;
24873;SDS011;12945;42.648;23.370;2023-07-29T02:00:43;5.70;;;3.55;;
24873;SDS011;12945;42.648;23.370;2023-07-29T02:03:09;8.25;;;3.67;;
24873;SDS011;12945;42.648;23.370;2023-07-29T02:05:34;6.63;;;3.92;;
24873;SDS011;12945;42.648;23.370;2023-07-29T02:07:59;6.15;;;4.00;;
24873;SDS011;12945;42.648;23.370;2023-07-29T02:10:25;6.05;;;3.70;;
24873;SDS011;12945;42.648;23.370;2023-07-29T02:12:50;5.57;;;3.30;;
24873;SDS011;12945;42.648;23.370;2023-07-29T02:15:15;4.63;;;3.60;;
24873;SDS011;12945;42.648;23.370;2023-07-29T02:17:41;5.28;;;3.63;;
24873;SDS011;12945;42.648;23.370;2023-07-29T02:20:07;3.80;;;3.05;;
24873;SDS011;12945;42.648;23.370;2023-07-29T02:22:32;4.60;;;3.40;;
24873;SDS011;12945;42.648;23.370;2023-07-29T02:24:57;3.78;;;3.20;;
24873;SDS011;12945;42.648;23.370;2023-07-29T02:27:23;7.22;;;3.45;;
24873;SDS011;12945;42.648;23.370;2023-07-29T02:29:51;4.55;;;3.25;;
24873;SDS011;12945;42.648;23.370;2023-07-29T02:32:17;4.20;;;3.33;;
24873;SDS011;12945;42.648;23.370;2023-07-29T02:34:42;3.63;;;3.00;;
24873;SDS011;12945;42.648;23.370;2023-07-29T02:37:07;5.95;;;3.20;;
24873;SDS011;12945;42.648;23.370;2023-07-29T02:39:33;4.13;;;3.45;;
24873;SDS011;12945;42.648;23.370;2023-07-29T02:41:58;5.45;;;3.15;;
24873;SDS011;12945;42.648;23.370;2023-07-29T02:44:24;5.05;;;3.35;;
24873;SDS011;12945;42.648;23.370;2023-07-29T02:46:50;6.13;;;3.53;;
24873;SDS011;12945;42.648;23.370;2023-07-29T02:49:17;4.90;;;3.50;;
24873;SDS011;12945;42.648;23.370;2023-07-29T02:51:42;3.60;;;3.03;;
24873;SDS011;12945;42.648;23.370;2023-07-29T02:54:07;6.05;;;3.50;;
24873;SDS011;12945;42.648;23.370;2023-07-29T02:56:33;4.30;;;3.35;;
24873;SDS011;12945;42.648;23.370;2023-07-29T02:58:58;4.18;;;3.67;;
24873;SDS011;12945;42.648;23.370;2023-07-29T03:01:23;5.03;;;3.45;;
24873;SDS011;12945;42.648;23.370;2023-07-29T03:03:50;5.68;;;3.75;;
24873;SDS011;12945;42.648;23.370;2023-07-29T03:06:15;6.75;;;3.50;;
24873;SDS011;12945;42.648;23.370;2023-07-29T03:08:40;6.03;;;3.45;;
24873;SDS011;12945;42.648;23.370;2023-07-29T03:11:06;5.45;;;3.63;;
24873;SDS011;12945;42.648;23.370;2023-07-29T03:13:32;5.97;;;3.80;;
24873;SDS011;12945;42.648;23.370;2023-07-29T03:16:04;6.20;;;3.58;;
24873;SDS011;12945;42.648;23.370;2023-07-29T03:18:30;5.07;;;3.42;;
24873;SDS011;12945;42.648;23.370;2023-07-29T03:20:55;6.75;;;4.05;;
24873;SDS011;12945;42.648;23.370;2023-07-29T03:23:21;9.18;;;3.80;;
24873;SDS011;12945;42.648;23.370;2023-07-29T03:25:48;5.53;;;3.70;;
24873;SDS011;12945;42.648;23.370;2023-07-29T03:28:13;8.00;;;3.85;;
24873;SDS011;12945;42.648;23.370;2023-07-29T03:30:38;8.65;;;4.05;;
24873;SDS011;12945;42.648;23.370;2023-07-29T03:33:04;5.35;;;3.90;;
24873;SDS011;12945;42.648;23.370;2023-07-29T03:35:29;4.45;;;3.90;;
24873;SDS011;12945;42.648;23.370;2023-07-29T03:37:55;6.93;;;4.20;;
24873;SDS011;12945;42.648;23.370;2023-07-29T03:40:20;5.75;;;3.58;;
24873;SDS011;12945;42.648;23.370;2023-07-29T03:42:45;5.45;;;3.95;;
24873;SDS011;12945;42.648;23.370;2023-07-29T03:45:11;5.65;;;4.00;;
24873;SDS011;12945;42.648;23.370;2023-07-29T03:47:36;6.70;;;3.90;;
24873;SDS011;12945;42.648;23.370;2023-07-29T03:50:02;9.43;;;4.47;;
24873;SDS011;12945;42.648;23.370;2023-07-29T03:52:27;7.07;;;3.97;;
24873;SDS011;12945;42.648;23.370;2023-07-29T03:54:52;6.00;;;3.78;;
24873;SDS011;12945;42.648;23.370;2023-07-29T03:57:18;6.13;;;3.80;;
24873;SDS011;12945;42.648;23.370;2023-07-29T03:59:43;7.90;;;3.78;;
24873;SDS011;12945;42.648;23.370;2023-07-29T04:02:08;4.05;;;3.55;;
24873;SDS011;12945;42.648;23.370;2023-07-29T04:04:34;7.68;;;3.95;;
24873;SDS011;12945;42.648;23.370;2023-07-29T04:06:59;9.98;;;4.45;;
24873;SDS011;12945;42.648;23.370;2023-07-29T04:09:25;7.82;;;3.35;;
24873;SDS011;12945;42.648;23.370;2023-07-29T04:11:50;5.78;;;3.90;;
24873;SDS011;12945;42.648;23.370;2023-07-29T04:14:16;6.72;;;4.03;;
24873;SDS011;12945;42.648;23.370;2023-07-29T04:16:41;5.68;;;4.00;;
24873;SDS011;12945;42.648;23.370;2023-07-29T04:19:06;6.82;;;4.00;;
24873;SDS011;12945;42.648;23.370;2023-07-29T04:21:32;7.00;;;4.05;;
24873;SDS011;12945;42.648;23.370;2023-07-29T04:23:57;5.88;;;3.83;;
24873;SDS011;12945;42.648;23.370;2023-07-29T04:26:25;5.38;;;3.63;;
24873;SDS011;12945;42.648;23.370;2023-07-29T04:28:50;5.85;;;3.75;;
24873;SDS011;12945;42.648;23.370;2023-07-29T04:31:16;5.57;;;3.88;;
24873;SDS011;12945;42.648;23.370;2023-07-29T04:33:41;9.13;;;3.78;;
24873;SDS011;12945;42.648;23.370;2023-07-29T04:36:06;5.00;;;3.60;;
24873;SDS011;12945;42.648;23.370;2023-07-29T04:38:32;6.43;;;4.25;;
24873;SDS011;12945;42.648;23.370;2023-07-29T04:40:58;9.77;;;3.63;;
24873;SDS011;12945;42.648;23.370;2023-07-29T04:43:30;4.65;;;3.80;;
24873;SDS011;12945;42.648;23.370;2023-07-29T04:45:56;8.00;;;3.78;;
24873;SDS011;12945;42.648;23.370;2023-07-29T04:48:21;5.78;;;4.28;;
24873;SDS011;12945;42.648;23.370;2023-07-29T04:50:46;9.30;;;3.83;;
24873;SDS011;12945;42.648;23.370;2023-07-29T04:53:12;6.43;;;3.60;;
24873;SDS011;12945;42.648;23.370;2023-07-29T04:55:37;8.07;;;4.00;;
24873;SDS011;12945;42.648;23.370;2023-07-29T04:58:02;12.00;;;4.47;;
24873;SDS011;12945;42.648;23.370;2023-07-29T05:00:28;4.68;;;3.78;;
24873;SDS011;12945;42.648;23.370;2023-07-29T05:02:53;9.82;;;4.20;;
24873;SDS011;12945;42.648;23.370;2023-07-29T05:05:18;5.70;;;3.72;;
24873;SDS011;12945;42.648;23.370;2023-07-29T05:07:43;7.53;;;3.85;;
24873;SDS011;12945;42.648;23.370;2023-07-29T05:10:09;4.90;;;3.65;;
24873;SDS011;12945;42.648;23.370;2023-07-29T05:12:34;5.63;;;3.45;;
24873;SDS011;12945;42.648;23.370;2023-07-29T05:14:59;7.20;;;3.22;;
24873;SDS011;12945;42.648;23.370;2023-07-29T05:17:25;5.65;;;3.80;;
24873;SDS011;12945;42.648;23.370;2023-07-29T05:19:50;5.13;;;3.60;;
24873;SDS011;12945;42.648;23.370;2023-07-29T05:22:15;4.90;;;3.50;;
24873;SDS011;12945;42.648;23.370;2023-07-29T05:24:41;4.75;;;3.30;;
24873;SDS011;12945;42.648;23.370;2023-07-29T05:27:06;4.68;;;3.42;;
24873;SDS011;12945;42.648;23.370;2023-07-29T05:29:33;6.63;;;3.47;;
24873;SDS011;12945;42.648;23.370;2023-07-29T05:31:58;4.80;;;3.53;;
24873;SDS011;12945;42.648;23.370;2023-07-29T05:34:24;4.13;;;3.50;;
24873;SDS011;12945;42.648;23.370;2023-07-29T05:36:49;4.65;;;3.80;;
24873;SDS011;12945;42.648;23.370;2023-07-29T05:39:14;4.07;;;3.50;;
24873;SDS011;12945;42.648;23.370;2023-07-29T05:41:40;7.63;;;3.67;;
24873;SDS011;12945;42.648;23.370;2023-07-29T05:44:05;4.13;;;3.40;;
24873;SDS011;12945;42.648;23.370;2023-07-29T05:46:31;9.43;;;4.00;;
24873;SDS011;12945;42.648;23.370;2023-07-29T05:48:56;5.72;;;3.78;;
24873;SDS011;12945;42.648;23.370;2023-07-29T05:51:21;4.97;;;3.53;;
24873;SDS011;12945;42.648;23.370;2023-07-29T05:53:47;6.22;;;3.78;;
24873;SDS011;12945;42.648;23.370;2023-07-29T05:56:12;5.78;;;3.72;;
24873;SDS011;12945;42.648;23.370;2023-07-29T05:58:37;7.00;;;3.42;;
24873;SDS011;12945;42.648;23.370;2023-07-29T06:01:03;4.80;;;3.67;;
24873;SDS011;12945;42.648;23.370;2023-07-29T06:03:28;6.18;;;3.88;;
24873;SDS011;12945;42.648;23.370;2023-07-29T06:05:54;5.57;;;4.22;;
24873;SDS011;12945;42.648;23.370;2023-07-29T06:08:19;8.25;;;3.90;;
24873;SDS011;12945;42.648;23.370;2023-07-29T06:10:44;8.93;;;3.80;;
24873;SDS011;12945;42.648;23.370;2023-07-29T06:13:10;8.40;;;4.15;;
24873;SDS011;12945;42.648;23.370;2023-07-29T06:15:35;5.38;;;3.78;;
24873;SDS011;12945;42.648;23.370;2023-07-29T06:18:00;4.68;;;3.72;;
24873;SDS011;12945;42.648;23.370;2023-07-29T06:20:25;6.28;;;4.10;;
24873;SDS011;12945;42.648;23.370;2023-07-29T06:22:51;6.47;;;4.05;;
24873;SDS011;12945;42.648;23.370;2023-07-29T06:25:16;8.18;;;4.30;;
24873;SDS011;12945;42.648;23.370;2023-07-29T06:27:41;7.72;;;4.22;;
24873;SDS011;12945;42.648;23.370;2023-07-29T06:30:07;10.00;;;4.50;;
24873;SDS011;12945;42.648;23.370;2023-07-29T06:32:33;6.68;;;3.58;;
24873;SDS011;12945;42.648;23.370;2023-07-29T06:34:58;8.57;;;4.72;;
24873;SDS011;12945;42.648;23.370;2023-07-29T06:37:24;5.60;;;4.22;;
24873;SDS011;12945;42.648;23.370;2023-07-29T06:39:49;7.88;;;4.10;;
24873;SDS011;12945;42.648;23.370;2023-07-29T06:42:15;8.93;;;4.30;;
24873;SDS011;12945;42.648;23.370;2023-07-29T06:44:40;12.63;;;4.05;;
24873;SDS011;12945;42.648;23.370;2023-07-29T06:47:05;10.38;;;4.32;;
24873;SDS011;12945;42.648;23.370;2023-07-29T06:49:31;8.32;;;4.45;;
24873;SDS011;12945;42.648;23.370;2023-07-29T06:51:56;11.77;;;4.28;;
24873;SDS011;12945;42.648;23.370;2023-07-29T06:54:24;6.57;;;3.47;;
24873;SDS011;12945;42.648;23.370;2023-07-29T06:56:51;9.70;;;3.53;;
24873;SDS011;12945;42.648;23.370;2023-07-29T06:59:16;11.07;;;4.22;;
24873;SDS011;12945;42.648;23.370;2023-07-29T07:01:41;7.78;;;4.03;;
24873;SDS011;12945;42.648;23.370;2023-07-29T07:04:06;6.60;;;3.55;;
24873;SDS011;12945;42.648;23.370;2023-07-29T07:06:32;7.47;;;3.72;;
24873;SDS011;12945;42.648;23.370;2023-07-29T07:08:57;8.73;;;4.05;;
24873;SDS011;12945;42.648;23.370;2023-07-29T07:11:22;7.05;;;3.35;;
24873;SDS011;12945;42.648;23.370;2023-07-29T07:13:47;8.50;;;3.80;;
24873;SDS011;12945;42.648;23.370;2023-07-29T07:16:13;10.70;;;3.63;;
24873;SDS011;12945;42.648;23.370;2023-07-29T07:18:38;7.80;;;3.45;;
24873;SDS011;12945;42.648;23.370;2023-07-29T07:21:03;8.93;;;3.60;;
24873;SDS011;12945;42.648;23.370;2023-07-29T07:23:29;7.95;;;4.65;;
24873;SDS011;12945;42.648;23.370;2023-07-29T07:25:54;9.30;;;4.25;;
24873;SDS011;12945;42.648;23.370;2023-07-29T07:28:19;12.35;;;3.92;;
24873;SDS011;12945;42.648;23.370;2023-07-29T07:30:44;9.15;;;3.90;;
24873;SDS011;12945;42.648;23.370;2023-07-29T07:33:11;7.80;;;3.88;;
24873;SDS011;12945;42.648;23.370;2023-07-29T07:35:36;7.33;;;4.57;;
24873;SDS011;12945;42.648;23.370;2023-07-29T07:38:02;10.00;;;3.85;;
24873;SDS011;12945;42.648;23.370;2023-07-29T07:40:29;11.23;;;4.30;;
24873;SDS011;12945;42.648;23.370;2023-07-29T07:42:54;7.20;;;3.85;;
24873;SDS011;12945;42.648;23.370;2023-07-29T07:45:19;6.80;;;3.77;;
24873;SDS011;12945;42.648;23.370;2023-07-29T07:47:45;8.13;;;3.90;;
24873;SDS011;12945;42.648;23.370;2023-07-29T07:50:10;10.57;;;4.13;;
24873;SDS011;12945;42.648;23.370;2023-07-29T07:52:35;13.30;;;4.20;;
24873;SDS011;12945;42.648;23.370;2023-07-29T07:55:01;8.37;;;3.90;;
24873;SDS011;12945;42.648;23.370;2023-07-29T07:57:27;8.52;;;3.78;;
24873;SDS011;12945;42.648;23.370;2023-07-29T07:59:52;9.70;;;4.17;;
24873;SDS011;12945;42.648;23.370;2023-07-29T08:02:18;7.95;;;4.00;;
24873;SDS011;12945;42.648;23.370;2023-07-29T08:04:43;12.73;;;4.15;;
24873;SDS011;12945;42.648;23.370;2023-07-29T08:07:08;9.75;;;3.78;;
24873;SDS011;12945;42.648;23.370;2023-07-29T08:09:34;7.47;;;3.70;;
24873;SDS011;12945;42.648;23.370;2023-07-29T08:11:59;12.25;;;3.85;;
24873;SDS011;12945;42.648;23.370;2023-07-29T08:14:24;8.82;;;3.38;;
24873;SDS011;12945;42.648;23.370;2023-07-29T08:16:49;5.18;;;4.05;;
24873;SDS011;12945;42.648;23.370;2023-07-29T08:19:15;6.88;;;3.88;;
24873;SDS011;12945;42.648;23.370;2023-07-29T08:21:40;7.70;;;3.55;;
24873;SDS011;12945;42.648;23.370;2023-07-29T08:24:05;7.63;;;4.25;;
24873;SDS011;12945;42.648;23.370;2023-07-29T08:26:32;9.85;;;3.28;;
24873;SDS011;12945;42.648;23.370;2023-07-29T08:28:57;10.13;;;3.80;;
24873;SDS011;12945;42.648;23.370;2023-07-29T08:31:23;7.93;;;3.45;;
24873;SDS011;12945;42.648;23.370;2023-07-29T08:33:48;6.55;;;3.67;;
24873;SDS011;12945;42.648;23.370;2023-07-29T08:36:13;5.27;;;3.30;;
24873;SDS011;12945;42.648;23.370;2023-07-29T08:38:38;6.70;;;3.53;;
24873;SDS011;12945;42.648;23.370;2023-07-29T08:41:14;4.97;;;3.20;;
24873;SDS011;12945;42.648;23.370;2023-07-29T08:43:41;10.75;;;3.47;;
24873;SDS011;12945;42.648;23.370;2023-07-29T08:46:08;7.15;;;3.38;;
24873;SDS011;12945;42.648;23.370;2023-07-29T08:51:00;3.33;;;2.47;;
24873;SDS011;12945;42.648;23.370;2023-07-29T08:53:26;4.18;;;2.50;;
24873;SDS011;12945;42.648;23.370;2023-07-29T08:55:51;6.35;;;2.88;;
24873;SDS011;12945;42.648;23.370;2023-07-29T08:58:18;7.15;;;2.88;;
24873;SDS011;12945;42.648;23.370;2023-07-29T09:00:44;4.93;;;2.42;;
24873;SDS011;12945;42.648;23.370;2023-07-29T09:03:10;6.68;;;2.83;;
24873;SDS011;12945;42.648;23.370;2023-07-29T09:05:35;4.25;;;2.33;;
24873;SDS011;12945;42.648;23.370;2023-07-29T09:08:01;4.43;;;2.00;;
24873;SDS011;12945;42.648;23.370;2023-07-29T09:10:27;5.65;;;2.20;;
24873;SDS011;12945;42.648;23.370;2023-07-29T09:12:52;6.43;;;2.15;;
24873;SDS011;12945;42.648;23.370;2023-07-29T09:15:53;3.33;;;2.22;;
24873;SDS011;12945;42.648;23.370;2023-07-29T09:18:10;2.60;;;1.80;;
24873;SDS011;12945;42.648;23.370;2023-07-29T09:20:36;2.55;;;1.90;;
24873;SDS011;12945;42.648;23.370;2023-07-29T09:23:01;2.42;;;1.55;;
24873;SDS011;12945;42.648;23.370;2023-07-29T09:25:27;4.00;;;1.87;;
24873;SDS011;12945;42.648;23.370;2023-07-29T09:27:53;3.30;;;2.17;;
24873;SDS011;12945;42.648;23.370;2023-07-29T09:30:23;4.30;;;2.20;;
24873;SDS011;12945;42.648;23.370;2023-07-29T09:32:52;3.00;;;2.05;;
24873;SDS011;12945;42.648;23.370;2023-07-29T09:35:17;3.30;;;1.90;;
24873;SDS011;12945;42.648;23.370;2023-07-29T09:37:43;2.53;;;1.95;;
24873;SDS011;12945;42.648;23.370;2023-07-29T09:40:13;3.88;;;1.90;;
24873;SDS011;12945;42.648;23.370;2023-07-29T09:42:38;4.13;;;2.17;;
24873;SDS011;12945;42.648;23.370;2023-07-29T09:45:04;3.30;;;2.10;;
24873;SDS011;12945;42.648;23.370;2023-07-29T09:47:29;4.85;;;2.20;;
24873;SDS011;12945;42.648;23.370;2023-07-29T09:49:55;1.92;;;1.50;;
24873;SDS011;12945;42.648;23.370;2023-07-29T09:52:21;2.57;;;1.70;;
24873;SDS011;12945;42.648;23.370;2023-07-29T09:54:47;2.47;;;1.40;;
24873;SDS011;12945;42.648;23.370;2023-07-29T09:57:16;2.97;;;1.50;;
24873;SDS011;12945;42.648;23.370;2023-07-29T09:59:42;3.40;;;1.75;;
24873;SDS011;12945;42.648;23.370;2023-07-29T10:02:09;2.55;;;1.70;;
24873;SDS011;12945;42.648;23.370;2023-07-29T10:04:38;2.17;;;1.55;;
24873;SDS011;12945;42.648;23.370;2023-07-29T10:07:03;4.32;;;1.70;;
24873;SDS011;12945;42.648;23.370;2023-07-29T10:09:28;3.83;;;1.83;;
24873;SDS011;12945;42.648;23.370;2023-07-29T10:11:54;6.38;;;2.15;;
24873;SDS011;12945;42.648;23.370;2023-07-29T10:14:20;4.70;;;2.25;;
24873;SDS011;12945;42.648;23.370;2023-07-29T10:16:45;3.33;;;1.92;;
24873;SDS011;12945;42.648;23.370;2023-07-29T10:19:11;3.03;;;1.75;;
24873;SDS011;12945;42.648;23.370;2023-07-29T10:21:39;10.65;;;1.70;;
24873;SDS011;12945;42.648;23.370;2023-07-29T10:24:06;6.93;;;2.00;;
24873;SDS011;12945;42.648;23.370;2023-07-29T10:26:34;6.65;;;1.90;;
24873;SDS011;12945;42.648;23.370;2023-07-29T10:29:01;2.92;;;1.85;;
24873;SDS011;12945;42.648;23.370;2023-07-29T10:31:29;3.25;;;1.95;;
24873;SDS011;12945;42.648;23.370;2023-07-29T10:33:55;3.40;;;1.80;;
24873;SDS011;12945;42.648;23.370;2023-07-29T10:36:20;2.60;;;1.50;;
24873;SDS011;12945;42.648;23.370;2023-07-29T10:38:46;3.22;;;1.60;;
24873;SDS011;12945;42.648;23.370;2023-07-29T10:41:11;3.50;;;1.50;;
24873;SDS011;12945;42.648;23.370;2023-07-29T10:43:37;3.35;;;1.45;;
24873;SDS011;12945;42.648;23.370;2023-07-29T10:46:15;5.55;;;1.63;;
24873;SDS011;12945;42.648;23.370;2023-07-29T10:48:43;3.10;;;1.48;;
24873;SDS011;12945;42.648;23.370;2023-07-29T10:53:47;4.82;;;1.80;;
24873;SDS011;12945;42.648;23.370;2023-07-29T10:56:12;5.95;;;1.83;;
24873;SDS011;12945;42.648;23.370;2023-07-29T10:58:37;6.65;;;1.50;;
24873;SDS011;12945;42.648;23.370;2023-07-29T11:01:07;2.45;;;1.42;;
24873;SDS011;12945;42.648;23.370;2023-07-29T11:03:37;2.35;;;1.42;;
24873;SDS011;12945;42.648;23.370;2023-07-29T11:06:04;6.60;;;1.60;;
24873;SDS011;12945;42.648;23.370;2023-07-29T11:08:30;2.22;;;1.38;;
24873;SDS011;12945;42.648;23.370;2023-07-29T11:13:27;4.85;;;1.27;;
24873;SDS011;12945;42.648;23.370;2023-07-29T11:15:53;5.10;;;1.75;;
24873;SDS011;12945;42.648;23.370;2023-07-29T11:18:18;1.52;;;1.42;;
24873;SDS011;12945;42.648;23.370;2023-07-29T11:20:45;3.08;;;1.80;;
24873;SDS011;12945;42.648;23.370;2023-07-29T11:23:11;5.00;;;1.70;;
24873;SDS011;12945;42.648;23.370;2023-07-29T11:25:36;1.63;;;1.43;;
24873;SDS011;12945;42.648;23.370;2023-07-29T11:28:01;5.78;;;1.50;;
24873;SDS011;12945;42.648;23.370;2023-07-29T11:30:27;2.50;;;1.88;;
24873;SDS011;12945;42.648;23.370;2023-07-29T11:32:54;2.25;;;1.58;;
24873;SDS011;12945;42.648;23.370;2023-07-29T11:35:22;2.08;;;1.40;;
24873;SDS011;12945;42.648;23.370;2023-07-29T11:37:48;2.10;;;1.50;;
24873;SDS011;12945;42.648;23.370;2023-07-29T11:40:14;2.33;;;1.45;;
24873;SDS011;12945;42.648;23.370;2023-07-29T11:42:40;1.92;;;1.38;;
24873;SDS011;12945;42.648;23.370;2023-07-29T11:45:06;3.85;;;1.30;;
24873;SDS011;12945;42.648;23.370;2023-07-29T11:47:31;3.35;;;1.50;;
24873;SDS011;12945;42.648;23.370;2023-07-29T11:50:00;3.25;;;1.35;;
24873;SDS011;12945;42.648;23.370;2023-07-29T11:52:26;2.50;;;1.35;;
24873;SDS011;12945;42.648;23.370;2023-07-29T11:54:52;2.05;;;1.50;;
24873;SDS011;12945;42.648;23.370;2023-07-29T11:57:17;1.33;;;1.23;;
24873;SDS011;12945;42.648;23.370;2023-07-29T11:59:46;2.55;;;1.60;;
24873;SDS011;12945;42.648;23.370;2023-07-29T12:02:12;2.60;;;1.40;;
24873;SDS011;12945;42.648;23.370;2023-07-29T12:04:38;4.90;;;1.50;;
24873;SDS011;12945;42.648;23.370;2023-07-29T12:07:04;5.32;;;1.77;;
24873;SDS011;12945;42.648;23.370;2023-07-29T12:09:29;2.08;;;1.50;;
24873;SDS011;12945;42.648;23.370;2023-07-29T12:11:55;1.50;;;1.10;;
24873;SDS011;12945;42.648;23.370;2023-07-29T12:14:21;3.35;;;1.40;;
24873;SDS011;12945;42.648;23.370;2023-07-29T12:16:50;4.28;;;1.40;;
24873;SDS011;12945;42.648;23.370;2023-07-29T12:19:16;3.85;;;1.65;;
24873;SDS011;12945;42.648;23.370;2023-07-29T12:21:43;1.40;;;1.20;;
24873;SDS011;12945;42.648;23.370;2023-07-29T12:24:08;1.40;;;1.30;;
24873;SDS011;12945;42.648;23.370;2023-07-29T12:26:35;4.63;;;1.27;;
24873;SDS011;12945;42.648;23.370;2023-07-29T12:29:10;1.52;;;1.10;;
24873;SDS011;12945;42.648;23.370;2023-07-29T12:31:37;1.50;;;1.20;;
24873;SDS011;12945;42.648;23.370;2023-07-29T12:34:02;3.65;;;1.20;;
24873;SDS011;12945;42.648;23.370;2023-07-29T12:36:40;1.37;;;1.00;;
24873;SDS011;12945;42.648;23.370;2023-07-29T12:39:05;2.25;;;1.10;;
24873;SDS011;12945;42.648;23.370;2023-07-29T12:41:30;3.27;;;1.27;;
24873;SDS011;12945;42.648;23.370;2023-07-29T12:43:56;3.60;;;1.20;;
24873;SDS011;12945;42.648;23.370;2023-07-29T12:46:21;1.60;;;1.40;;
24873;SDS011;12945;42.648;23.370;2023-07-29T12:48:46;1.98;;;1.27;;
24873;SDS011;12945;42.648;23.370;2023-07-29T12:51:11;5.50;;;1.23;;
24873;SDS011;12945;42.648;23.370;2023-07-29T12:53:37;3.03;;;1.17;;
24873;SDS011;12945;42.648;23.370;2023-07-29T12:56:02;2.00;;;1.20;;
24873;SDS011;12945;42.648;23.370;2023-07-29T12:58:27;4.20;;;1.27;;
24873;SDS011;12945;42.648;23.370;2023-07-29T13:00:52;3.63;;;1.20;;
24873;SDS011;12945;42.648;23.370;2023-07-29T13:03:19;2.45;;;1.48;;
24873;SDS011;12945;42.648;23.370;2023-07-29T13:05:44;2.53;;;1.40;;
24873;SDS011;12945;42.648;23.370;2023-07-29T13:08:09;3.67;;;1.80;;
24873;SDS011;12945;42.648;23.370;2023-07-29T13:10:35;4.22;;;1.60;;
24873;SDS011;12945;42.648;23.370;2023-07-29T13:13:01;2.80;;;1.73;;
24873;SDS011;12945;42.648;23.370;2023-07-29T13:15:26;1.93;;;1.50;;
24873;SDS011;12945;42.648;23.370;2023-07-29T13:17:51;3.58;;;1.40;;
24873;SDS011;12945;42.648;23.370;2023-07-29T13:20:17;1.95;;;1.75;;
24873;SDS011;12945;42.648;23.370;2023-07-29T13:22:42;7.07;;;1.60;;
24873;SDS011;12945;42.648;23.370;2023-07-29T13:25:07;3.93;;;1.30;;
24873;SDS011;12945;42.648;23.370;2023-07-29T13:27:33;2.97;;;1.38;;
24873;SDS011;12945;42.648;23.370;2023-07-29T13:29:58;2.85;;;1.60;;
24873;SDS011;12945;42.648;23.370;2023-07-29T13:32:23;3.00;;;1.60;;
24873;SDS011;12945;42.648;23.370;2023-07-29T13:34:49;3.47;;;1.65;;
24873;SDS011;12945;42.648;23.370;2023-07-29T13:37:14;4.05;;;1.70;;
24873;SDS011;12945;42.648;23.370;2023-07-29T13:39:39;2.70;;;1.65;;
24873;SDS011;12945;42.648;23.370;2023-07-29T13:42:05;1.50;;;1.30;;
24873;SDS011;12945;42.648;23.370;2023-07-29T13:44:30;2.40;;;1.55;;
24873;SDS011;12945;42.648;23.370;2023-07-29T13:46:56;2.10;;;1.70;;
24873;SDS011;12945;42.648;23.370;2023-07-29T13:49:21;3.22;;;1.45;;
24873;SDS011;12945;42.648;23.370;2023-07-29T13:51:46;1.80;;;1.33;;
24873;SDS011;12945;42.648;23.370;2023-07-29T13:54:12;1.65;;;1.50;;
24873;SDS011;12945;42.648;23.370;2023-07-29T13:56:37;5.43;;;1.60;;
24873;SDS011;12945;42.648;23.370;2023-07-29T13:59:03;2.13;;;1.60;;
24873;SDS011;12945;42.648;23.370;2023-07-29T14:01:28;3.33;;;1.40;;
24873;SDS011;12945;42.648;23.370;2023-07-29T14:03:53;2.55;;;1.63;;
24873;SDS011;12945;42.648;23.370;2023-07-29T14:06:18;2.93;;;1.80;;
24873;SDS011;12945;42.648;23.370;2023-07-29T14:08:44;2.53;;;1.63;;
24873;SDS011;12945;42.648;23.370;2023-07-29T14:11:09;2.85;;;1.88;;
24873;SDS011;12945;42.648;23.370;2023-07-29T14:13:34;2.90;;;2.10;;
24873;SDS011;12945;42.648;23.370;2023-07-29T14:16:03;2.87;;;1.70;;
24873;SDS011;12945;42.648;23.370;2023-07-29T14:18:28;2.30;;;1.80;;
24873;SDS011;12945;42.648;23.370;2023-07-29T14:20:53;3.03;;;1.80;;
24873;SDS011;12945;42.648;23.370;2023-07-29T14:23:19;2.15;;;1.90;;
24873;SDS011;12945;42.648;23.370;2023-07-29T14:25:44;3.00;;;2.10;;
24873;SDS011;12945;42.648;23.370;2023-07-29T14:28:09;2.80;;;1.77;;
24873;SDS011;12945;42.648;23.370;2023-07-29T14:30:35;3.40;;;1.70;;
24873;SDS011;12945;42.648;23.370;2023-07-29T14:33:00;3.85;;;1.80;;
24873;SDS011;12945;42.648;23.370;2023-07-29T14:35:25;3.33;;;1.70;;
24873;SDS011;12945;42.648;23.370;2023-07-29T14:37:51;2.97;;;1.57;;
24873;SDS011;12945;42.648;23.370;2023-07-29T14:40:16;1.90;;;1.70;;
24873;SDS011;12945;42.648;23.370;2023-07-29T14:42:41;4.07;;;2.13;;